Time;durP1;ratioP1;P1;durP2;ratioP2;P2;SDS_P1;SDS_P2;PMS_P1;PMS_P2;Temp;Humidity;BMP_temperature;BMP_pressure;BME280_temperature;BME280_humidity;BME280_pressure;Samples;Min_cycle;Max_cycle;Signal;HPM_P1;HPM_P2
2022/11/06 00:01:44;;;;;;;2.30;0.65;;;21.00;54.40;;;;;;5041989;28;20041;-51
2022/11/06 00:04:11;;;;;;;4.22;0.85;;;21.10;54.40;;;;;;5042482;28;20126;-51
2022/11/06 00:06:49;;;;;;;8.73;1.60;;;21.10;54.40;;;;;;5046169;28;20156;-51
2022/11/06 00:09:19;;;;;;;5.65;1.85;;;21.10;54.40;;;;;;5046505;28;20172;-53
2022/11/06 00:11:47;;;;;;;9.75;1.65;;;21.20;55.70;;;;;;5046636;28;20055;-50
2022/11/06 00:14:16;;;;;;;4.82;0.73;;;21.20;56.40;;;;;;5046441;28;20052;-47
2022/11/06 00:16:44;;;;;;;2.65;0.70;;;21.20;56.80;;;;;;5094943;28;20142;-48
2022/11/06 00:19:12;;;;;;;1.80;0.50;;;21.20;57.30;;;;;;5104982;28;20092;-47
2022/11/06 00:21:39;;;;;;;5.93;1.50;;;21.30;57.50;;;;;;5106981;28;20035;-44
2022/11/06 00:24:08;;;;;;;7.55;0.40;;;21.30;57.40;;;;;;5110725;27;20039;-48
2022/11/06 00:26:36;;;;;;;6.55;0.43;;;21.30;57.40;;;;;;5099348;28;20549;-49
2022/11/06 00:29:04;;;;;;;5.20;0.65;;;21.40;57.30;;;;;;5107760;28;20032;-46
2022/11/06 00:31:34;;;;;;;4.47;0.55;;;21.40;56.90;;;;;;5106738;28;20032;-50
2022/11/06 00:34:01;;;;;;;6.25;0.47;;;21.40;56.60;;;;;;5099177;28;20062;-47
2022/11/06 00:36:30;;;;;;;1.17;0.52;;;21.40;56.30;;;;;;5106640;28;20032;-47
2022/11/06 00:38:58;;;;;;;4.47;1.60;;;21.40;56.00;;;;;;5110012;28;20036;-48
2022/11/06 00:41:26;;;;;;;5.72;0.47;;;21.40;55.70;;;;;;5117675;27;20639;-46
2022/11/06 00:43:56;;;;;;;2.78;0.47;;;21.40;55.60;;;;;;5109092;28;20069;-48
2022/11/06 00:46:23;;;;;;;0.82;0.17;;;21.40;55.40;;;;;;5109054;28;20040;-48
2022/11/06 00:48:52;;;;;;;5.20;0.50;;;21.40;55.20;;;;;;5108720;28;20135;-46
2022/11/06 00:51:21;;;;;;;1.48;0.10;;;21.40;55.10;;;;;;5107538;28;20495;-48
2022/11/06 00:53:48;;;;;;;5.38;0.90;;;21.40;54.80;;;;;;5106089;28;20044;-47
2022/11/06 00:56:17;;;;;;;5.88;1.20;;;21.40;54.60;;;;;;5108261;28;20042;-46
2022/11/06 00:58:45;;;;;;;3.60;0.28;;;21.40;54.50;;;;;;5108209;28;20407;-45
2022/11/06 01:01:14;;;;;;;2.90;0.45;;;21.40;54.40;;;;;;5109263;28;20039;-46
2022/11/06 01:03:42;;;;;;;6.13;0.98;;;21.40;54.30;;;;;;5109206;28;20047;-46
2022/11/06 01:06:13;;;;;;;3.92;0.52;;;21.40;54.20;;;;;;5089738;28;20074;-49
2022/11/06 01:08:40;;;;;;;2.90;0.35;;;21.40;54.00;;;;;;5108906;28;20043;-46
2022/11/06 01:11:11;;;;;;;2.00;1.17;;;21.30;53.90;;;;;;5108409;28;20050;-47
2022/11/06 01:13:38;;;;;;;3.10;1.65;;;21.30;53.80;;;;;;5091025;28;20612;-46
2022/11/06 01:16:07;;;;;;;4.05;0.20;;;21.30;53.70;;;;;;5108859;28;20195;-45
2022/11/06 01:18:35;;;;;;;3.85;0.60;;;21.30;53.60;;;;;;5108819;28;20471;-46
2022/11/06 01:21:05;;;;;;;5.97;0.52;;;21.30;53.60;;;;;;5109330;28;20074;-48
2022/11/06 01:23:34;;;;;;;0.93;0.20;;;21.30;53.40;;;;;;5109025;28;20112;-48
2022/11/06 01:26:02;;;;;;;2.65;0.32;;;21.20;53.30;;;;;;5108480;28;20538;-47
2022/11/06 01:28:30;;;;;;;1.63;0.55;;;21.20;53.20;;;;;;5109218;28;20146;-45
2022/11/06 01:30:57;;;;;;;6.65;0.50;;;21.20;53.10;;;;;;5108831;28;20124;-47
2022/11/06 01:33:24;;;;;;;2.53;0.85;;;21.20;53.00;;;;;;5108689;28;20048;-45
2022/11/06 01:35:52;;;;;;;5.88;0.20;;;21.20;53.00;;;;;;5108699;28;20043;-46
2022/11/06 01:38:19;;;;;;;1.35;0.98;;;21.20;53.00;;;;;;5122033;27;20043;-46
2022/11/06 01:40:48;;;;;;;1.38;0.65;;;21.20;53.00;;;;;;5128681;27;20051;-46
2022/11/06 01:43:21;;;;;;;2.67;0.20;;;21.10;52.80;;;;;;5129093;27;20123;-50
2022/11/06 01:45:50;;;;;;;3.95;0.30;;;21.10;52.80;;;;;;5129088;27;20475;-45
2022/11/06 01:48:21;;;;;;;0.57;0.20;;;21.10;52.80;;;;;;5121453;27;20131;-46
2022/11/06 01:50:51;;;;;;;6.30;0.30;;;21.10;52.80;;;;;;5108573;28;20075;-49
2022/11/06 01:53:18;;;;;;;3.00;0.85;;;21.00;52.70;;;;;;5121963;27;20067;-49
2022/11/06 01:55:50;;;;;;;2.85;0.20;;;21.00;52.60;;;;;;5128034;27;20131;-46
2022/11/06 01:58:21;;;;;;;0.50;0.10;;;21.00;52.50;;;;;;5114002;27;20072;-47
2022/11/06 02:00:49;;;;;;;0.90;0.20;;;21.00;52.50;;;;;;5088228;28;20113;-47
2022/11/06 02:03:17;;;;;;;0.50;0.38;;;21.00;52.50;;;;;;5087977;28;20508;-51
2022/11/06 02:05:44;;;;;;;0.70;0.13;;;21.00;52.50;;;;;;5087900;28;20036;-47
2022/11/06 02:08:14;;;;;;;0.50;0.28;;;20.90;53.00;;;;;;5069367;28;20097;-51
2022/11/06 02:10:42;;;;;;;0.60;0.35;;;20.90;52.30;;;;;;5069397;28;20054;-43
2022/11/06 02:13:23;;;;;;;0.30;0.10;;;20.90;52.30;;;;;;5087646;28;20051;-44
2022/11/06 02:15:57;;;;;;;1.25;0.30;;;20.90;52.20;;;;;;5087453;28;20039;-48
2022/11/06 02:18:39;;;;;;;1.58;0.17;;;20.90;52.30;;;;;;5087522;28;20040;-44
2022/11/06 02:21:25;;;;;;;1.02;0.28;;;20.80;52.30;;;;;;5087502;28;20052;-44
2022/11/06 02:24:18;;;;;;;0.95;0.35;;;20.80;52.20;;;;;;5087713;28;20040;-45
2022/11/06 02:27:00;;;;;;;0.50;0.10;;;20.80;52.80;;;;;;5087543;28;20582;-44
2022/11/06 02:29:33;;;;;;;0.80;0.30;;;20.80;52.30;;;;;;5087473;28;20048;-45
2022/11/06 02:32:06;;;;;;;1.05;0.43;;;20.80;52.40;;;;;;5116493;27;20050;-48
2022/11/06 02:34:36;;;;;;;1.52;0.28;;;20.70;52.40;;;;;;5128245;27;20051;-47
2022/11/06 02:37:07;;;;;;;0.30;0.20;;;20.70;52.40;;;;;;5128374;27;20040;-47
2022/11/06 02:39:39;;;;;;;0.40;0.10;;;20.70;52.50;;;;;;5110516;27;20079;-45
2022/11/06 02:42:10;;;;;;;4.03;0.20;;;20.70;52.50;;;;;;5107372;28;20051;-49
2022/11/06 02:44:38;;;;;;;1.85;0.20;;;20.70;52.60;;;;;;5125557;27;20040;-44
2022/11/06 02:47:09;;;;;;;3.65;0.35;;;20.70;52.60;;;;;;5105146;27;20498;-48
2022/11/06 02:49:40;;;;;;;0.57;0.10;;;20.70;52.60;;;;;;5105666;28;20048;-46
2022/11/06 02:52:12;;;;;;;1.50;0.63;;;20.60;52.70;;;;;;5107083;28;20896;-46
2022/11/06 02:54:43;;;;;;;0.57;0.10;;;20.60;52.80;;;;;;5107717;28;20055;-46
2022/11/06 02:57:14;;;;;;;2.15;0.40;;;20.60;52.70;;;;;;5127340;28;20035;-48
2022/11/06 02:59:48;;;;;;;2.30;1.05;;;20.60;52.70;;;;;;5110111;28;20231;-46
2022/11/06 03:02:19;;;;;;;0.65;0.25;;;20.60;52.70;;;;;;5128141;28;20041;-46
2022/11/06 03:04:52;;;;;;;2.47;0.15;;;20.60;52.70;;;;;;5128198;28;20047;-47
2022/11/06 03:07:22;;;;;;;0.32;0.20;;;20.60;52.70;;;;;;5127576;28;20118;-45
2022/11/06 03:09:50;;;;;;;0.63;0.22;;;20.60;52.70;;;;;;5128192;28;20043;-45
2022/11/06 03:12:25;;;;;;;5.75;0.30;;;20.50;52.50;;;;;;5127684;28;20043;-46
2022/11/06 03:14:57;;;;;;;1.45;0.10;;;20.60;52.60;;;;;;5128067;28;20721;-49
2022/11/06 03:17:31;;;;;;;2.20;0.20;;;20.50;52.60;;;;;;5127961;28;20043;-46
2022/11/06 03:20:05;;;;;;;0.73;0.10;;;20.50;52.50;;;;;;5127783;28;20456;-45
2022/11/06 03:22:40;;;;;;;1.02;0.10;;;20.50;52.40;;;;;;5127470;28;20575;-48
2022/11/06 03:25:14;;;;;;;1.70;0.47;;;20.50;52.30;;;;;;5118419;28;20044;-47
2022/11/06 03:27:50;;;;;;;0.85;0.20;;;20.50;52.30;;;;;;5107361;28;20630;-48
2022/11/06 03:30:17;;;;;;;0.10;0.10;;;20.50;52.20;;;;;;5111202;28;20039;-45
2022/11/06 03:32:49;;;;;;;0.98;0.30;;;20.40;52.20;;;;;;5111123;28;20047;-47
2022/11/06 03:35:22;;;;;;;0.73;0.15;;;20.40;52.10;;;;;;5106469;28;20040;-46
2022/11/06 03:37:56;;;;;;;1.75;0.32;;;20.40;52.10;;;;;;5090748;28;20139;-46
2022/11/06 03:40:27;;;;;;;5.53;0.47;;;20.40;52.10;;;;;;5090636;28;20136;-50
2022/11/06 03:42:59;;;;;;;0.43;0.25;;;20.40;52.10;;;;;;5072078;28;20467;-48
2022/11/06 03:45:27;;;;;;;1.13;0.30;;;20.40;52.10;;;;;;5090464;28;20044;-45
2022/11/06 03:47:58;;;;;;;2.40;0.17;;;20.40;52.30;;;;;;5094545;28;20039;-47
2022/11/06 03:50:30;;;;;;;1.13;0.20;;;20.30;52.00;;;;;;5110459;28;20048;-48
2022/11/06 03:53:02;;;;;;;1.85;0.20;;;20.30;52.00;;;;;;5110548;28;20051;-47
2022/11/06 03:55:34;;;;;;;1.50;0.30;;;20.30;52.00;;;;;;5110776;28;20040;-49
2022/11/06 03:58:07;;;;;;;0.57;0.10;;;20.30;52.00;;;;;;5110734;28;20568;-46
2022/11/06 04:00:36;;;;;;;1.52;0.20;;;20.30;52.00;;;;;;5111291;28;20035;-50
2022/11/06 04:03:07;;;;;;;0.55;0.10;;;20.30;52.00;;;;;;5110798;28;20105;-46
2022/11/06 04:05:39;;;;;;;1.52;0.20;;;20.30;52.00;;;;;;5110107;28;20118;-49
2022/11/06 04:14:00;;;;;;;1.85;0.10;;;20.20;51.90;;;;;;5092111;28;20051;-46
2022/11/06 04:16:32;;;;;;;0.50;0.13;;;20.20;51.90;;;;;;5110719;28;20052;-48
2022/11/06 04:19:00;;;;;;;2.30;0.20;;;20.20;51.90;;;;;;5109999;28;20089;-45
2022/11/06 04:21:43;;;;;;;0.40;0.20;;;20.20;51.90;;;;;;5110191;28;20107;-45
2022/11/06 04:27:23;;;;;;;1.02;0.10;;;20.20;51.80;;;;;;5110226;28;20081;-47
2022/11/06 04:30:04;;;;;;;3.17;0.20;;;20.20;51.80;;;;;;5110137;28;20043;-47
2022/11/06 04:32:43;;;;;;;0.10;0.10;;;20.20;51.80;;;;;;5109768;28;20051;-48
2022/11/06 04:35:17;;;;;;;0.82;0.10;;;20.10;51.80;;;;;;5109726;28;20040;-47
2022/11/06 04:37:52;;;;;;;3.17;0.25;;;20.10;51.80;;;;;;5109583;28;20075;-49
2022/11/06 04:40:26;;;;;;;1.05;0.32;;;20.10;51.80;;;;;;5109835;28;20075;-46
2022/11/06 04:42:58;;;;;;;3.63;0.20;;;20.10;51.70;;;;;;5115616;27;20043;-48
2022/11/06 04:45:31;;;;;;;0.85;0.10;;;20.10;51.70;;;;;;5130321;27;20046;-47
2022/11/06 04:47:59;;;;;;;0.60;0.28;;;20.10;51.70;;;;;;5125538;27;20052;-50
2022/11/06 04:50:28;;;;;;;1.17;0.20;;;20.10;51.70;;;;;;5109957;28;20522;-48
2022/11/06 04:52:57;;;;;;;0.52;0.20;;;20.10;51.70;;;;;;5109249;28;20048;-47
2022/11/06 04:55:25;;;;;;;0.50;0.20;;;20.10;51.60;;;;;;5109451;28;20040;-46
2022/11/06 04:57:52;;;;;;;0.45;0.20;;;20.00;52.20;;;;;;5109412;28;20046;-48
2022/11/06 05:00:19;;;;;;;1.17;0.10;;;20.00;51.60;;;;;;5109666;28;20042;-49
2022/11/06 05:02:48;;;;;;;0.20;0.20;;;20.00;51.50;;;;;;5109348;28;20055;-48
2022/11/06 05:05:15;;;;;;;2.15;0.10;;;20.00;51.50;;;;;;5109687;28;20039;-46
2022/11/06 05:07:42;;;;;;;0.88;0.25;;;20.00;51.50;;;;;;5109006;28;20044;-44
2022/11/06 05:10:09;;;;;;;2.05;0.10;;;20.00;51.50;;;;;;5109508;28;20040;-49
2022/11/06 05:12:36;;;;;;;0.63;0.30;;;20.00;51.50;;;;;;5106439;28;20089;-44
2022/11/06 05:15:04;;;;;;;1.73;0.30;;;20.00;51.50;;;;;;5101804;28;20390;-46
2022/11/06 05:17:31;;;;;;;2.05;0.25;;;20.00;51.40;;;;;;5088323;28;20105;-46
2022/11/06 05:19:59;;;;;;;0.65;0.10;;;20.00;51.30;;;;;;5090865;28;20047;-47
2022/11/06 05:25:11;;;;;;;1.90;0.10;;;20.00;51.40;;;;;;5108275;28;20093;-46
2022/11/06 05:27:38;;;;;;;0.30;0.10;;;20.00;51.50;;;;;;5107941;28;20044;-44
2022/11/06 05:30:06;;;;;;;0.85;0.20;;;20.00;51.60;;;;;;5107182;28;20091;-44
2022/11/06 05:32:33;;;;;;;5.45;1.55;;;20.00;51.70;;;;;;5088488;28;20040;-46
2022/11/06 05:35:02;;;;;;;0.63;0.10;;;20.00;51.80;;;;;;5107425;28;20067;-45
2022/11/06 05:37:29;;;;;;;2.47;0.52;;;20.00;52.00;;;;;;5107257;28;20423;-45
2022/11/06 05:39:56;;;;;;;4.03;0.32;;;20.00;52.10;;;;;;5107598;27;20127;-45
2022/11/06 05:42:23;;;;;;;2.03;0.10;;;20.00;53.00;;;;;;5107883;28;20040;-45
2022/11/06 05:44:50;;;;;;;1.83;0.10;;;20.10;52.50;;;;;;5087286;28;20047;-46
2022/11/06 05:47:17;;;;;;;0.90;0.10;;;20.20;52.60;;;;;;5107928;28;20028;-44
2022/11/06 05:49:44;;;;;;;1.95;0.10;;;20.30;52.60;;;;;;5107765;28;20456;-46
2022/11/06 05:52:12;;;;;;;0.30;0.10;;;20.40;52.50;;;;;;5106976;28;20539;-46
2022/11/06 05:54:39;;;;;;;0.45;0.10;;;20.50;52.40;;;;;;5108052;28;20036;-45
2022/11/06 05:57:06;;;;;;;1.00;0.20;;;20.60;52.30;;;;;;5104671;28;20054;-45
2022/11/06 05:59:33;;;;;;;2.53;0.20;;;20.70;52.20;;;;;;5089474;28;20043;-47
2022/11/06 06:02:00;;;;;;;1.48;0.52;;;20.80;52.10;;;;;;5107349;28;20072;-45
2022/11/06 06:04:27;;;;;;;0.52;0.10;;;20.90;52.00;;;;;;5106701;28;20039;-44
2022/11/06 06:06:54;;;;;;;0.28;0.10;;;21.00;51.90;;;;;;5105364;28;20563;-47
2022/11/06 06:09:23;;;;;;;1.98;0.10;;;21.10;51.70;;;;;;5107167;28;20053;-46
2022/11/06 06:11:51;;;;;;;0.30;0.10;;;21.10;51.60;;;;;;5108638;28;20845;-48
2022/11/06 06:14:18;;;;;;;0.20;0.10;;;21.20;51.40;;;;;;5108591;28;20046;-51
2022/11/06 06:16:45;;;;;;;1.63;0.40;;;21.30;51.40;;;;;;5107069;28;20044;-48
2022/11/06 06:19:12;;;;;;;6.82;0.20;;;21.40;51.30;;;;;;5089279;28;20459;-45
2022/11/06 06:21:39;;;;;;;0.30;0.20;;;21.50;51.20;;;;;;5107618;28;20031;-45
2022/11/06 06:24:07;;;;;;;0.70;0.30;;;21.50;51.00;;;;;;5106250;28;20048;-46
2022/11/06 06:26:35;;;;;;;1.63;0.20;;;21.60;50.90;;;;;;5107214;28;20377;-46
2022/11/06 06:29:03;;;;;;;2.58;0.63;;;21.70;50.80;;;;;;5106773;28;20123;-52
2022/11/06 06:31:30;;;;;;;2.50;0.25;;;21.70;50.70;;;;;;5100037;28;20043;-51
2022/11/06 06:33:57;;;;;;;1.92;0.10;;;21.80;50.80;;;;;;5099072;28;20048;-47
2022/11/06 06:36:24;;;;;;;0.70;0.25;;;21.90;50.90;;;;;;5107859;28;20522;-48
2022/11/06 06:38:51;;;;;;;0.52;0.10;;;21.90;50.80;;;;;;5107566;28;20044;-46
2022/11/06 06:41:18;;;;;;;4.10;0.10;;;22.10;51.40;;;;;;5108028;28;20511;-56
2022/11/06 06:43:49;;;;;;;1.95;0.10;;;22.20;50.80;;;;;;5107831;28;20044;-55
2022/11/06 06:46:16;;;;;;;0.60;0.10;;;22.30;50.60;;;;;;5107927;28;20040;-59
2022/11/06 06:48:43;;;;;;;0.30;0.20;;;22.50;50.30;;;;;;5107323;28;20046;-58
2022/11/06 06:51:10;;;;;;;4.68;0.10;;;22.60;50.00;;;;;;5088296;28;20108;-55
2022/11/06 06:53:37;;;;;;;1.23;0.47;;;22.80;49.80;;;;;;5089365;28;20424;-57
2022/11/06 06:56:05;;;;;;;3.70;0.15;;;23.00;49.50;;;;;;5107691;28;20649;-59
2022/11/06 06:58:32;;;;;;;0.52;0.10;;;23.20;49.20;;;;;;5105659;28;20036;-59
2022/11/06 07:01:02;;;;;;;1.98;0.10;;;23.30;48.80;;;;;;5106464;28;20108;-59
2022/11/06 07:03:29;;;;;;;0.17;0.10;;;23.50;48.60;;;;;;5108089;28;20052;-58
2022/11/06 07:05:58;;;;;;;1.08;0.10;;;23.60;48.20;;;;;;5111582;27;20114;-56
2022/11/06 07:08:25;;;;;;;3.00;0.20;;;23.70;48.00;;;;;;5115236;27;20489;-58
2022/11/06 07:10:52;;;;;;;5.55;0.65;;;23.80;48.00;;;;;;5111553;28;20039;-58
2022/11/06 07:13:19;;;;;;;8.50;0.57;;;23.80;47.90;;;;;;5109105;28;20570;-60
2022/11/06 07:15:46;;;;;;;7.32;0.82;;;23.90;47.50;;;;;;5102194;28;20142;-57
2022/11/06 07:18:14;;;;;;;1.90;1.25;;;23.80;47.20;;;;;;5110965;28;20043;-57
2022/11/06 07:20:41;;;;;;;5.45;0.73;;;23.80;46.90;;;;;;5110601;28;20051;-58
2022/11/06 07:23:09;;;;;;;9.82;2.08;;;23.70;46.70;;;;;;5092740;28;20415;-58
2022/11/06 07:25:36;;;;;;;6.35;0.75;;;23.60;47.50;;;;;;5110466;28;20043;-57
2022/11/06 07:28:04;;;;;;;11.80;1.00;;;23.50;48.60;;;;;;5092776;28;20046;-59
2022/11/06 07:30:33;;;;;;;3.90;0.77;;;23.50;48.60;;;;;;5111840;28;20132;-58
2022/11/06 07:33:01;;;;;;;3.65;0.75;;;23.40;48.50;;;;;;5111845;28;20093;-58
2022/11/06 07:35:30;;;;;;;4.15;0.73;;;23.30;48.30;;;;;;5111730;28;20048;-58
2022/11/06 07:37:58;;;;;;;11.20;0.43;;;23.30;48.30;;;;;;5104689;28;20093;-58
2022/11/06 07:40:25;;;;;;;5.20;0.50;;;23.20;48.20;;;;;;5091040;28;20070;-59
2022/11/06 07:42:52;;;;;;;4.35;0.70;;;23.10;48.20;;;;;;5091013;28;20044;-58
2022/11/06 07:45:19;;;;;;;5.10;0.88;;;23.10;48.20;;;;;;5091430;28;20044;-59
2022/11/06 07:47:46;;;;;;;2.33;0.73;;;23.00;48.20;;;;;;5094222;28;20055;-60
2022/11/06 07:50:14;;;;;;;7.15;0.88;;;22.90;48.20;;;;;;5111188;28;20055;-60
2022/11/06 07:52:42;;;;;;;2.53;0.68;;;22.90;48.20;;;;;;5111179;28;20051;-57
2022/11/06 07:55:09;;;;;;;4.05;0.63;;;22.80;48.00;;;;;;5111344;28;20069;-58
2022/11/06 07:57:37;;;;;;;3.13;0.38;;;22.70;47.90;;;;;;5110679;28;20040;-59
2022/11/06 08:00:06;;;;;;;3.00;0.52;;;22.70;47.90;;;;;;5093029;28;20119;-59
2022/11/06 08:02:39;;;;;;;1.97;0.20;;;22.60;47.80;;;;;;5111434;28;20125;-59
2022/11/06 08:05:07;;;;;;;3.70;0.30;;;22.50;47.80;;;;;;5093062;28;20044;-60
2022/11/06 08:07:34;;;;;;;2.08;0.10;;;22.50;47.80;;;;;;5111243;28;20046;-60
2022/11/06 08:10:02;;;;;;;0.70;0.60;;;22.40;47.90;;;;;;5110785;28;20091;-58
2022/11/06 08:12:29;;;;;;;1.30;0.20;;;22.30;47.90;;;;;;5110644;28;20039;-60
2022/11/06 08:14:56;;;;;;;0.98;0.10;;;22.30;47.90;;;;;;5110096;28;20039;-58
2022/11/06 08:17:23;;;;;;;2.38;0.38;;;22.20;48.00;;;;;;5110916;28;20055;-59
2022/11/06 08:19:50;;;;;;;3.55;0.28;;;22.20;48.00;;;;;;5111321;28;20128;-59
2022/11/06 08:22:18;;;;;;;1.98;0.20;;;22.10;48.00;;;;;;5110777;28;20043;-59
2022/11/06 08:24:45;;;;;;;0.82;0.10;;;22.00;47.90;;;;;;5110788;28;20054;-58
2022/11/06 08:27:13;;;;;;;1.70;0.20;;;22.00;48.00;;;;;;5094929;28;20119;-59
2022/11/06 08:29:40;;;;;;;0.38;0.38;;;21.90;47.90;;;;;;5121699;27;20047;-59
2022/11/06 08:32:07;;;;;;;2.45;0.20;;;21.90;47.90;;;;;;5131181;27;20402;-60
2022/11/06 08:34:35;;;;;;;0.15;0.13;;;21.80;47.90;;;;;;5122073;27;20153;-59
2022/11/06 08:37:02;;;;;;;2.53;0.30;;;21.80;48.00;;;;;;5110630;28;20043;-59
2022/11/06 08:39:29;;;;;;;3.25;0.63;;;21.70;47.90;;;;;;5110768;27;20111;-57
2022/11/06 08:41:56;;;;;;;0.90;0.10;;;21.70;47.90;;;;;;5125877;27;20526;-59
2022/11/06 08:44:25;;;;;;;0.90;0.10;;;21.60;47.90;;;;;;5130866;27;20106;-58
2022/11/06 08:46:52;;;;;;;0.75;0.10;;;21.60;48.00;;;;;;5130876;27;20694;-57
2022/11/06 08:49:19;;;;;;;1.60;0.25;;;21.50;48.00;;;;;;5114867;27;20050;-58
2022/11/06 08:51:46;;;;;;;2.50;0.13;;;21.50;48.00;;;;;;5110158;28;20064;-58
2022/11/06 08:54:13;;;;;;;1.02;0.73;;;21.40;47.90;;;;;;5110182;28;20127;-58
2022/11/06 08:56:40;;;;;;;1.27;0.32;;;21.40;48.00;;;;;;5109875;28;20065;-58
2022/11/06 08:59:08;;;;;;;1.35;0.20;;;21.40;48.00;;;;;;5110189;28;20047;-57
2022/11/06 09:01:36;;;;;;;1.52;0.45;;;21.40;48.10;;;;;;5110048;28;20624;-58
2022/11/06 09:04:04;;;;;;;5.90;1.20;;;21.30;48.00;;;;;;5110103;28;20096;-58
2022/11/06 09:06:32;;;;;;;0.88;0.13;;;21.30;48.00;;;;;;5110073;28;20132;-58
2022/11/06 09:08:59;;;;;;;2.47;0.10;;;21.20;48.00;;;;;;5091141;28;20039;-58
2022/11/06 09:11:26;;;;;;;1.38;0.10;;;21.20;48.10;;;;;;5109806;28;20047;-57
2022/11/06 09:13:53;;;;;;;0.95;0.20;;;21.10;48.10;;;;;;5107115;28;20047;-59
2022/11/06 09:16:20;;;;;;;1.85;0.20;;;21.10;48.10;;;;;;5071252;28;20040;-58
2022/11/06 09:18:48;;;;;;;0.60;0.10;;;21.10;48.10;;;;;;5089460;28;20062;-59
2022/11/06 09:21:15;;;;;;;1.00;0.20;;;21.10;48.20;;;;;;5089376;28;20039;-58
2022/11/06 09:23:43;;;;;;;0.35;0.10;;;21.00;48.10;;;;;;5088719;28;20083;-58
2022/11/06 09:26:10;;;;;;;2.70;0.10;;;21.00;48.20;;;;;;5106254;28;20166;-58
2022/11/06 09:28:37;;;;;;;0.57;0.57;;;21.00;48.20;;;;;;5109212;28;20067;-58
2022/11/06 09:31:04;;;;;;;3.35;0.32;;;21.00;48.30;;;;;;5109356;28;20069;-59
2022/11/06 09:33:31;;;;;;;1.95;0.10;;;20.90;48.30;;;;;;5115100;27;20146;-59
2022/11/06 09:36:00;;;;;;;0.55;0.30;;;20.90;48.30;;;;;;5129995;27;20130;-58
2022/11/06 09:38:27;;;;;;;1.85;0.40;;;20.90;48.40;;;;;;5129395;27;20134;-58
2022/11/06 09:40:57;;;;;;;0.43;0.10;;;20.80;48.30;;;;;;5129827;27;20127;-57
2022/11/06 09:43:32;;;;;;;0.85;0.38;;;20.80;48.30;;;;;;5129469;27;20112;-59
2022/11/06 09:46:14;;;;;;;1.30;0.10;;;20.80;48.40;;;;;;5129632;27;20590;-59
2022/11/06 09:48:44;;;;;;;0.95;0.10;;;20.80;48.50;;;;;;5119052;27;20063;-58
2022/11/06 09:51:20;;;;;;;0.28;0.10;;;20.70;49.00;;;;;;5108947;28;20051;-59
2022/11/06 09:53:53;;;;;;;2.95;0.15;;;20.70;48.40;;;;;;5090615;28;20115;-60
2022/11/06 09:56:24;;;;;;;3.92;0.10;;;20.70;48.40;;;;;;5121600;27;20051;-59
2022/11/06 09:58:52;;;;;;;0.50;0.10;;;20.70;48.50;;;;;;5110926;27;20055;-58
2022/11/06 10:01:23;;;;;;;1.92;0.30;;;20.60;48.50;;;;;;5129948;27;20055;-59
2022/11/06 10:03:54;;;;;;;2.17;0.15;;;20.60;48.50;;;;;;5074968;28;20485;-59
2022/11/06 10:06:24;;;;;;;1.45;0.10;;;20.60;48.50;;;;;;5088613;28;20052;-59
2022/11/06 10:08:53;;;;;;;3.40;0.75;;;20.50;48.60;;;;;;5102468;27;20050;-60
2022/11/06 10:11:44;;;;;;;0.40;0.10;;;20.50;48.60;;;;;;5129263;27;20047;-59
2022/11/06 10:14:25;;;;;;;1.40;0.13;;;20.50;48.70;;;;;;5128740;27;20135;-59
2022/11/06 10:16:59;;;;;;;0.50;0.10;;;20.40;48.70;;;;;;5128954;27;20046;-59
2022/11/06 10:19:38;;;;;;;1.45;0.10;;;20.40;48.80;;;;;;5129390;27;20035;-58
2022/11/06 10:22:13;;;;;;;0.63;0.55;;;20.30;48.80;;;;;;5128799;27;20092;-59
2022/11/06 10:24:45;;;;;;;1.40;0.10;;;20.30;48.90;;;;;;5123459;27;20047;-59
2022/11/06 10:27:16;;;;;;;2.35;0.10;;;20.30;49.00;;;;;;5108586;28;20534;-58
2022/11/06 10:30:01;;;;;;;0.10;0.10;;;20.30;49.00;;;;;;5108341;28;20873;-59
2022/11/06 10:32:48;;;;;;;0.30;0.20;;;20.30;49.10;;;;;;5108554;28;20043;-58
2022/11/06 10:35:21;;;;;;;0.22;0.22;;;20.20;49.20;;;;;;5108398;28;20092;-59
2022/11/06 10:37:54;;;;;;;0.93;0.20;;;20.20;49.30;;;;;;5107682;28;20035;-58
2022/11/06 10:40:26;;;;;;;0.63;0.20;;;20.20;49.30;;;;;;5108330;28;20043;-58
2022/11/06 10:43:01;;;;;;;1.77;0.20;;;20.20;49.40;;;;;;5108257;28;20040;-59
2022/11/06 10:45:29;;;;;;;1.58;0.30;;;20.10;49.40;;;;;;5108352;27;20126;-59
2022/11/06 10:48:04;;;;;;;1.05;0.10;;;20.10;49.50;;;;;;5124318;27;20043;-58
2022/11/06 10:50:41;;;;;;;2.65;0.30;;;20.10;49.80;;;;;;5107934;28;20135;-57
2022/11/06 10:53:21;;;;;;;1.95;0.10;;;20.10;49.60;;;;;;5087898;28;20055;-58
2022/11/06 10:56:05;;;;;;;1.08;0.10;;;20.00;49.60;;;;;;5102919;28;20065;-59
2022/11/06 10:58:34;;;;;;;1.63;0.20;;;20.00;49.70;;;;;;5108017;28;20043;-59
2022/11/06 11:01:02;;;;;;;0.35;0.20;;;20.00;49.80;;;;;;5107991;28;20051;-58
2022/11/06 11:03:32;;;;;;;0.85;0.10;;;20.00;49.80;;;;;;5108115;28;20048;-61
2022/11/06 11:06:00;;;;;;;2.75;0.35;;;20.00;49.90;;;;;;5116882;28;20042;-59
2022/11/06 11:08:39;;;;;;;5.15;0.10;;;20.00;49.90;;;;;;5128487;28;20047;-59
2022/11/06 11:11:16;;;;;;;1.55;0.32;;;20.00;50.00;;;;;;5128464;28;20055;-57
2022/11/06 11:13:45;;;;;;;1.40;0.40;;;19.90;50.00;;;;;;5128644;28;20039;-59
2022/11/06 11:16:15;;;;;;;1.85;0.30;;;19.90;50.00;;;;;;5128270;28;20039;-59
2022/11/06 11:18:42;;;;;;;1.27;0.20;;;19.90;50.10;;;;;;5128475;28;20053;-59
2022/11/06 11:21:19;;;;;;;0.22;0.17;;;19.90;50.10;;;;;;5128302;28;20049;-60
2022/11/06 11:24:06;;;;;;;1.33;0.47;;;19.90;50.20;;;;;;5128992;28;20073;-60
2022/11/06 11:26:35;;;;;;;0.98;0.30;;;19.90;50.20;;;;;;5088045;28;20076;-57
2022/11/06 11:29:15;;;;;;;0.50;0.10;;;19.80;50.20;;;;;;5087531;28;20048;-59
2022/11/06 11:31:47;;;;;;;0.45;0.22;;;19.90;50.40;;;;;;5108479;28;20035;-58
2022/11/06 11:34:20;;;;;;;0.10;0.10;;;19.80;50.30;;;;;;5128078;28;20046;-59
2022/11/06 11:36:50;;;;;;;1.02;0.15;;;19.80;50.30;;;;;;5128371;28;20503;-59
2022/11/06 11:39:22;;;;;;;1.25;0.10;;;19.80;50.40;;;;;;5128477;28;20108;-60
2022/11/06 11:41:49;;;;;;;1.70;0.32;;;19.80;50.40;;;;;;5106003;28;20044;-59
2022/11/06 11:44:18;;;;;;;0.57;0.20;;;19.80;50.40;;;;;;5087246;28;20408;-59
2022/11/06 11:46:50;;;;;;;0.43;0.40;;;19.70;50.50;;;;;;5098050;28;20091;-60
2022/11/06 11:49:27;;;;;;;0.88;0.82;;;19.80;50.50;;;;;;5112393;28;20046;-59
2022/11/06 11:51:56;;;;;;;2.13;0.45;;;19.80;50.60;;;;;;5111490;28;20511;-60
2022/11/06 11:54:27;;;;;;;1.05;0.10;;;19.70;50.60;;;;;;5127514;27;20571;-59
2022/11/06 11:56:56;;;;;;;2.28;0.10;;;19.70;50.60;;;;;;5093267;28;20864;-62
2022/11/06 11:59:28;;;;;;;1.80;0.10;;;19.70;50.70;;;;;;5111271;28;20571;-59
2022/11/06 12:02:00;;;;;;;0.73;0.10;;;19.70;50.70;;;;;;5119070;27;20124;-60
2022/11/06 12:04:31;;;;;;;0.95;0.30;;;19.70;50.80;;;;;;5131585;27;20126;-60
2022/11/06 12:07:01;;;;;;;0.63;0.10;;;19.70;50.80;;;;;;5131704;27;20096;-60
2022/11/06 12:09:33;;;;;;;0.50;0.20;;;19.70;50.90;;;;;;5131786;27;20129;-60
2022/11/06 12:12:01;;;;;;;1.40;0.10;;;19.70;50.90;;;;;;5131683;27;20507;-60
2022/11/06 12:14:34;;;;;;;1.23;0.10;;;19.70;50.90;;;;;;5131543;27;20039;-58
2022/11/06 12:17:09;;;;;;;0.95;0.30;;;19.70;50.90;;;;;;5131689;27;20055;-58
2022/11/06 12:19:39;;;;;;;2.20;0.10;;;19.70;51.00;;;;;;5131322;27;20062;-60
2022/11/06 12:22:14;;;;;;;1.13;0.15;;;19.60;50.90;;;;;;5131532;27;20099;-60
2022/11/06 12:24:48;;;;;;;0.68;0.60;;;19.60;51.00;;;;;;5125486;27;20229;-59
2022/11/06 12:27:20;;;;;;;0.60;0.20;;;19.60;51.00;;;;;;5110887;28;20096;-60
2022/11/06 12:29:51;;;;;;;0.98;0.10;;;19.60;51.00;;;;;;5110773;28;20195;-59
2022/11/06 12:32:40;;;;;;;1.23;0.20;;;19.60;51.10;;;;;;5110249;28;20104;-59
2022/11/06 12:35:18;;;;;;;0.93;0.30;;;19.60;51.00;;;;;;5103482;28;20117;-60
2022/11/06 12:37:55;;;;;;;1.90;0.10;;;19.60;51.10;;;;;;5110902;27;20585;-60
2022/11/06 12:40:29;;;;;;;1.00;0.30;;;19.60;51.10;;;;;;5131361;27;20055;-59
2022/11/06 12:43:06;;;;;;;0.63;0.10;;;19.60;51.20;;;;;;5131096;27;20099;-61
2022/11/06 12:45:55;;;;;;;0.57;0.28;;;19.60;51.20;;;;;;5130816;27;20039;-59
2022/11/06 12:48:39;;;;;;;2.35;0.32;;;19.50;51.20;;;;;;5122344;27;20135;-59
2022/11/06 12:51:12;;;;;;;0.57;0.52;;;19.60;51.30;;;;;;5110065;28;20047;-58
2022/11/06 12:53:50;;;;;;;0.85;0.32;;;19.50;51.30;;;;;;5110259;28;20453;-58
2022/11/06 12:56:25;;;;;;;2.00;0.55;;;19.60;51.40;;;;;;5110075;28;20134;-57
2022/11/06 12:59:05;;;;;;;0.80;0.63;;;19.50;51.30;;;;;;5109962;28;20693;-57
2022/11/06 13:01:44;;;;;;;1.05;0.35;;;19.50;51.30;;;;;;5109659;28;20043;-58
2022/11/06 13:04:28;;;;;;;2.53;0.40;;;19.50;51.40;;;;;;5117609;27;20047;-58
2022/11/06 13:07:22;;;;;;;1.90;0.40;;;19.50;51.40;;;;;;5130671;27;20045;-58
2022/11/06 13:09:57;;;;;;;1.98;1.35;;;19.50;51.40;;;;;;5130924;27;20190;-58
2022/11/06 13:12:34;;;;;;;0.68;0.10;;;19.50;51.50;;;;;;5130577;27;20047;-58
2022/11/06 13:15:11;;;;;;;0.90;0.20;;;19.50;51.50;;;;;;5130319;27;20039;-58
2022/11/06 13:17:45;;;;;;;1.23;0.20;;;19.50;51.50;;;;;;5107372;27;20575;-57